sensor_id;sensor_type;location;lat;lon;timestamp;pressure;altitude;pressure_sealevel;temperature;humidity
64340;BME280;63709;53.258;-8.814;2023-01-27T00:01:04;103791.03;;;9.96;100.00
64340;BME280;63709;53.258;-8.814;2023-01-27T00:03:30;103792.63;;;10.03;100.00
64340;BME280;63709;53.258;-8.814;2023-01-27T00:05:55;103796.22;;;10.02;100.00
64340;BME280;63709;53.258;-8.814;2023-01-27T00:08:22;103787.38;;;10.00;100.00
64340;BME280;63709;53.258;-8.814;2023-01-27T00:10:48;103781.16;;;9.99;100.00
64340;BME280;63709;53.258;-8.814;2023-01-27T00:13:37;103777.56;;;10.00;100.00
64340;BME280;63709;53.258;-8.814;2023-01-27T00:16:02;103780.34;;;9.96;100.00
64340;BME280;63709;53.258;-8.814;2023-01-27T00:18:29;103774.34;;;9.87;100.00
64340;BME280;63709;53.258;-8.814;2023-01-27T00:20:54;103768.88;;;9.92;100.00
64340;BME280;63709;53.258;-8.814;2023-01-27T00:23:38;103764.47;;;9.89;100.00
64340;BME280;63709;53.258;-8.814;2023-01-27T00:26:23;103767.06;;;9.94;100.00
64340;BME280;63709;53.258;-8.814;2023-01-27T00:28:48;103768.00;;;9.91;100.00
64340;BME280;63709;53.258;-8.814;2023-01-27T00:31:15;103761.75;;;9.92;100.00
64340;BME280;63709;53.258;-8.814;2023-01-27T00:36:33;103762.47;;;9.99;100.00
64340;BME280;63709;53.258;-8.814;2023-01-27T00:38:59;103757.88;;;10.06;100.00
64340;BME280;63709;53.258;-8.814;2023-01-27T00:41:26;103764.47;;;9.91;100.00
64340;BME280;63709;53.258;-8.814;2023-01-27T00:43:54;103764.47;;;9.89;100.00
64340;BME280;63709;53.258;-8.814;2023-01-27T00:46:20;103759.31;;;9.83;100.00
64340;BME280;63709;53.258;-8.814;2023-01-27T00:48:47;103755.72;;;9.84;100.00
64340;BME280;63709;53.258;-8.814;2023-01-27T00:51:13;103760.00;;;9.91;100.00
64340;BME280;63709;53.258;-8.814;2023-01-27T00:53:39;103756.41;;;9.92;100.00
64340;BME280;63709;53.258;-8.814;2023-01-27T00:56:06;103758.28;;;9.89;100.00
64340;BME280;63709;53.258;-8.814;2023-01-27T00:58:31;103756.59;;;9.85;100.00
64340;BME280;63709;53.258;-8.814;2023-01-27T01:00:58;103759.25;;;9.86;100.00
64340;BME280;63709;53.258;-8.814;2023-01-27T01:03:24;103751.16;;;9.89;100.00
64340;BME280;63709;53.258;-8.814;2023-01-27T01:05:50;103753.59;;;9.99;100.00
64340;BME280;63709;53.258;-8.814;2023-01-27T01:08:16;103746.50;;;9.98;100.00
64340;BME280;63709;53.258;-8.814;2023-01-27T01:10:42;103735.13;;;9.89;100.00
64340;BME280;63709;53.258;-8.814;2023-01-27T01:13:07;103733.34;;;9.90;100.00
64340;BME280;63709;53.258;-8.814;2023-01-27T01:15:38;103722.59;;;9.93;100.00
64340;BME280;63709;53.258;-8.814;2023-01-27T01:18:04;103733.16;;;9.98;100.00
64340;BME280;63709;53.258;-8.814;2023-01-27T01:20:30;103732.72;;;9.80;100.00
64340;BME280;63709;53.258;-8.814;2023-01-27T01:22:56;103722.84;;;9.84;100.00
64340;BME280;63709;53.258;-8.814;2023-01-27T01:25:22;103717.91;;;9.67;100.00
64340;BME280;63709;53.258;-8.814;2023-01-27T01:27:47;103722.25;;;9.71;100.00
64340;BME280;63709;53.258;-8.814;2023-01-27T01:30:14;103716.91;;;9.71;100.00
64340;BME280;63709;53.258;-8.814;2023-01-27T01:32:40;103709.84;;;9.70;100.00
64340;BME280;63709;53.258;-8.814;2023-01-27T01:35:06;103707.91;;;9.75;100.00
64340;BME280;63709;53.258;-8.814;2023-01-27T01:37:31;103714.22;;;9.73;100.00
64340;BME280;63709;53.258;-8.814;2023-01-27T01:39:57;103704.28;;;9.79;100.00
64340;BME280;63709;53.258;-8.814;2023-01-27T01:42:23;103710.56;;;9.77;100.00
64340;BME280;63709;53.258;-8.814;2023-01-27T01:44:52;103712.19;;;9.82;100.00
64340;BME280;63709;53.258;-8.814;2023-01-27T01:47:36;103708.50;;;9.88;100.00
64340;BME280;63709;53.258;-8.814;2023-01-27T01:50:09;103714.03;;;9.80;100.00
64340;BME280;63709;53.258;-8.814;2023-01-27T01:52:35;103714.19;;;9.74;100.00
64340;BME280;63709;53.258;-8.814;2023-01-27T01:55:01;103711.44;;;9.77;100.00
64340;BME280;63709;53.258;-8.814;2023-01-27T01:57:27;103723.91;;;9.75;100.00
64340;BME280;63709;53.258;-8.814;2023-01-27T01:59:57;103716.72;;;9.79;100.00
64340;BME280;63709;53.258;-8.814;2023-01-27T02:02:25;103725.69;;;9.76;100.00
64340;BME280;63709;53.258;-8.814;2023-01-27T02:04:55;103724.78;;;9.77;100.00
64340;BME280;63709;53.258;-8.814;2023-01-27T02:07:26;103725.63;;;9.79;100.00
64340;BME280;63709;53.258;-8.814;2023-01-27T02:09:55;103728.19;;;9.82;100.00
64340;BME280;63709;53.258;-8.814;2023-01-27T02:12:21;103724.78;;;9.77;100.00
64340;BME280;63709;53.258;-8.814;2023-01-27T02:14:47;103724.72;;;9.79;100.00
64340;BME280;63709;53.258;-8.814;2023-01-27T02:17:13;103723.84;;;9.78;100.00
64340;BME280;63709;53.258;-8.814;2023-01-27T02:22:19;103719.38;;;9.79;100.00
64340;BME280;63709;53.258;-8.814;2023-01-27T02:24:48;103730.13;;;9.77;100.00
64340;BME280;63709;53.258;-8.814;2023-01-27T02:27:17;103722.03;;;9.80;100.00
64340;BME280;63709;53.258;-8.814;2023-01-27T02:29:43;103720.13;;;9.85;100.00
64340;BME280;63709;53.258;-8.814;2023-01-27T02:32:20;103720.31;;;9.78;100.00
64340;BME280;63709;53.258;-8.814;2023-01-27T02:34:46;103722.84;;;9.82;100.00
64340;BME280;63709;53.258;-8.814;2023-01-27T02:37:11;103726.31;;;9.86;100.00
64340;BME280;63709;53.258;-8.814;2023-01-27T02:39:38;103721.25;;;9.75;100.00
64340;BME280;63709;53.258;-8.814;2023-01-27T02:42:06;103719.50;;;9.76;100.00
64340;BME280;63709;53.258;-8.814;2023-01-27T02:44:33;103714.19;;;9.74;100.00
64340;BME280;63709;53.258;-8.814;2023-01-27T02:46:59;103717.97;;;9.64;100.00
64340;BME280;63709;53.258;-8.814;2023-01-27T02:49:25;103713.56;;;9.63;100.00
64340;BME280;63709;53.258;-8.814;2023-01-27T02:51:50;103712.63;;;9.65;100.00
64340;BME280;63709;53.258;-8.814;2023-01-27T02:54:15;103702.03;;;9.62;100.00
64340;BME280;63709;53.258;-8.814;2023-01-27T02:56:41;103694.94;;;9.61;100.00
64340;BME280;63709;53.258;-8.814;2023-01-27T02:59:11;103694.16;;;9.56;100.00
64340;BME280;63709;53.258;-8.814;2023-01-27T03:01:37;103690.47;;;9.62;100.00
64340;BME280;63709;53.258;-8.814;2023-01-27T03:04:03;103689.63;;;9.61;100.00
64340;BME280;63709;53.258;-8.814;2023-01-27T03:06:30;103689.56;;;9.63;100.00
64340;BME280;63709;53.258;-8.814;2023-01-27T03:08:55;103690.47;;;9.62;100.00
64340;BME280;63709;53.258;-8.814;2023-01-27T03:11:21;103679.75;;;9.65;100.00
64340;BME280;63709;53.258;-8.814;2023-01-27T03:14:06;103677.75;;;9.73;100.00
64340;BME280;63709;53.258;-8.814;2023-01-27T03:16:31;103677.81;;;9.70;100.00
64340;BME280;63709;53.258;-8.814;2023-01-27T03:19:15;103670.69;;;9.70;100.00
64340;BME280;63709;53.258;-8.814;2023-01-27T03:21:41;103662.75;;;9.69;100.00
64340;BME280;63709;53.258;-8.814;2023-01-27T03:24:06;103650.94;;;9.79;100.00
64340;BME280;63709;53.258;-8.814;2023-01-27T03:26:33;103643.00;;;9.76;100.00
64340;BME280;63709;53.258;-8.814;2023-01-27T03:28:59;103646.75;;;9.69;100.00
64340;BME280;63709;53.258;-8.814;2023-01-27T03:31:44;103641.16;;;9.78;100.00
64340;BME280;63709;53.258;-8.814;2023-01-27T03:34:10;103641.16;;;9.78;100.00
64340;BME280;63709;53.258;-8.814;2023-01-27T03:36:36;103635.06;;;9.73;100.00
64340;BME280;63709;53.258;-8.814;2023-01-27T03:39:22;103632.47;;;9.70;100.00
64340;BME280;63709;53.258;-8.814;2023-01-27T03:42:06;103632.81;;;9.58;100.00
64340;BME280;63709;53.258;-8.814;2023-01-27T03:44:50;103629.28;;;9.57;100.00
64340;BME280;63709;53.258;-8.814;2023-01-27T03:47:34;103629.28;;;9.57;100.00
64340;BME280;63709;53.258;-8.814;2023-01-27T03:50:01;103633.81;;;9.54;100.00
64340;BME280;63709;53.258;-8.814;2023-01-27T03:52:26;103631.81;;;9.62;100.00
64340;BME280;63709;53.258;-8.814;2023-01-27T03:54:52;103639.97;;;9.56;100.00
64340;BME280;63709;53.258;-8.814;2023-01-27T03:57:17;103643.53;;;9.55;100.00
64340;BME280;63709;53.258;-8.814;2023-01-27T03:59:43;103632.03;;;9.53;100.00
64340;BME280;63709;53.258;-8.814;2023-01-27T04:02:09;103644.47;;;9.54;100.00
64340;BME280;63709;53.258;-8.814;2023-01-27T04:04:53;103643.66;;;9.50;100.00
64340;BME280;63709;53.258;-8.814;2023-01-27T04:07:37;103648.00;;;9.54;100.00
64340;BME280;63709;53.258;-8.814;2023-01-27T04:10:03;103642.78;;;9.50;100.00
64340;BME280;63709;53.258;-8.814;2023-01-27T04:12:29;103644.84;;;9.38;100.00
64340;BME280;63709;53.258;-8.814;2023-01-27T04:14:56;103652.72;;;9.43;100.00
64340;BME280;63709;53.258;-8.814;2023-01-27T04:17:22;103656.94;;;9.53;100.00
64340;BME280;63709;53.258;-8.814;2023-01-27T04:19:47;103661.47;;;9.48;100.00
64340;BME280;63709;53.258;-8.814;2023-01-27T04:22:16;103656.94;;;9.52;100.00
64340;BME280;63709;53.258;-8.814;2023-01-27T04:24:41;103653.16;;;9.62;100.00
64340;BME280;63709;53.258;-8.814;2023-01-27T04:27:08;103654.06;;;9.61;100.00
64340;BME280;63709;53.258;-8.814;2023-01-27T04:29:39;103651.41;;;9.61;100.00
64340;BME280;63709;53.258;-8.814;2023-01-27T04:32:06;103645.22;;;9.59;100.00
64340;BME280;63709;53.258;-8.814;2023-01-27T04:34:33;103655.09;;;9.55;100.00
64340;BME280;63709;53.258;-8.814;2023-01-27T04:36:58;103647.22;;;9.49;100.00
64340;BME280;63709;53.258;-8.814;2023-01-27T04:39:24;103644.50;;;9.52;100.00
64340;BME280;63709;53.258;-8.814;2023-01-27T04:41:50;103649.81;;;9.54;100.00
64340;BME280;63709;53.258;-8.814;2023-01-27T04:44:16;103647.09;;;9.55;100.00
64340;BME280;63709;53.258;-8.814;2023-01-27T04:46:44;103639.09;;;9.55;100.00
64340;BME280;63709;53.258;-8.814;2023-01-27T04:49:10;103634.69;;;9.53;100.00
64340;BME280;63709;53.258;-8.814;2023-01-27T04:51:36;103636.47;;;9.54;100.00
64340;BME280;63709;53.258;-8.814;2023-01-27T04:54:03;103640.19;;;9.47;100.00
64340;BME280;63709;53.258;-8.814;2023-01-27T04:56:35;103636.56;;;9.49;100.00
64340;BME280;63709;53.258;-8.814;2023-01-27T04:59:04;103636.53;;;9.51;100.00
64340;BME280;63709;53.258;-8.814;2023-01-27T05:01:30;103623.28;;;9.48;100.00
64340;BME280;63709;53.258;-8.814;2023-01-27T05:03:56;103628.53;;;9.51;100.00
64340;BME280;63709;53.258;-8.814;2023-01-27T05:08:52;103616.22;;;9.47;100.00
64340;BME280;63709;53.258;-8.814;2023-01-27T05:11:18;103616.13;;;9.50;100.00
64340;BME280;63709;53.258;-8.814;2023-01-27T05:13:44;103621.53;;;9.47;100.00
64340;BME280;63709;53.258;-8.814;2023-01-27T05:16:11;103613.47;;;9.50;100.00
64340;BME280;63709;53.258;-8.814;2023-01-27T05:18:38;103607.28;;;9.48;100.00
64340;BME280;63709;53.258;-8.814;2023-01-27T05:21:04;103604.69;;;9.44;100.00
64340;BME280;63709;53.258;-8.814;2023-01-27T05:23:30;103603.63;;;9.52;100.00
64340;BME280;63709;53.258;-8.814;2023-01-27T05:26:21;103609.91;;;9.49;100.00
64340;BME280;63709;53.258;-8.814;2023-01-27T05:28:46;103617.81;;;9.54;100.00
64340;BME280;63709;53.258;-8.814;2023-01-27T05:33:39;103615.22;;;9.51;100.00
64340;BME280;63709;53.258;-8.814;2023-01-27T05:36:12;103612.56;;;9.49;100.00
64340;BME280;63709;53.258;-8.814;2023-01-27T05:38:38;103601.88;;;9.51;100.00
64340;BME280;63709;53.258;-8.814;2023-01-27T05:41:06;103613.41;;;9.51;100.00
64340;BME280;63709;53.258;-8.814;2023-01-27T05:43:33;103613.19;;;9.60;100.00
64340;BME280;63709;53.258;-8.814;2023-01-27T05:46:10;103611.47;;;9.58;100.00
64340;BME280;63709;53.258;-8.814;2023-01-27T05:48:40;103603.41;;;9.59;100.00
64340;BME280;63709;53.258;-8.814;2023-01-27T05:51:08;103602.59;;;9.57;100.00
64340;BME280;63709;53.258;-8.814;2023-01-27T05:53:34;103606.88;;;9.63;100.00
64340;BME280;63709;53.258;-8.814;2023-01-27T05:56:02;103601.56;;;9.63;100.00
64340;BME280;63709;53.258;-8.814;2023-01-27T05:58:29;103600.94;;;9.53;100.00
64340;BME280;63709;53.258;-8.814;2023-01-27T06:00:55;103592.03;;;9.53;100.00
64340;BME280;63709;53.258;-8.814;2023-01-27T06:03:21;103589.38;;;9.53;100.00
64340;BME280;63709;53.258;-8.814;2023-01-27T06:05:51;103587.53;;;9.55;100.00
64340;BME280;63709;53.258;-8.814;2023-01-27T06:08:18;103599.28;;;9.48;100.00
64340;BME280;63709;53.258;-8.814;2023-01-27T06:10:44;103587.94;;;9.39;100.00
64340;BME280;63709;53.258;-8.814;2023-01-27T06:13:09;103588.47;;;9.54;100.00
64340;BME280;63709;53.258;-8.814;2023-01-27T06:15:35;103574.28;;;9.53;100.00
64340;BME280;63709;53.258;-8.814;2023-01-27T06:18:01;103585.94;;;9.48;100.00
64340;BME280;63709;53.258;-8.814;2023-01-27T06:20:26;103586.03;;;9.44;100.00
64340;BME280;63709;53.258;-8.814;2023-01-27T06:22:51;103582.63;;;9.38;100.00
64340;BME280;63709;53.258;-8.814;2023-01-27T06:25:17;103568.97;;;9.52;100.00
64340;BME280;63709;53.258;-8.814;2023-01-27T06:27:43;103574.09;;;9.59;100.00
64340;BME280;63709;53.258;-8.814;2023-01-27T06:30:09;103571.34;;;9.62;100.00
64340;BME280;63709;53.258;-8.814;2023-01-27T06:32:35;103573.06;;;9.65;100.00
64340;BME280;63709;53.258;-8.814;2023-01-27T06:35:02;103573.38;;;9.53;100.00
64340;BME280;63709;53.258;-8.814;2023-01-27T06:37:28;103571.97;;;9.38;100.00
64340;BME280;63709;53.258;-8.814;2023-01-27T06:39:54;103571.94;;;9.39;100.00
64340;BME280;63709;53.258;-8.814;2023-01-27T06:42:20;103577.28;;;9.39;100.00
64340;BME280;63709;53.258;-8.814;2023-01-27T06:44:46;103577.75;;;9.55;100.00
64340;BME280;63709;53.258;-8.814;2023-01-27T06:47:13;103565.28;;;9.56;100.00
64340;BME280;63709;53.258;-8.814;2023-01-27T06:49:39;103567.97;;;9.56;100.00
64340;BME280;63709;53.258;-8.814;2023-01-27T06:52:06;103563.41;;;9.59;100.00
64340;BME280;63709;53.258;-8.814;2023-01-27T06:54:32;103562.69;;;9.54;100.00
64340;BME280;63709;53.258;-8.814;2023-01-27T06:56:59;103564.47;;;9.54;100.00
64340;BME280;63709;53.258;-8.814;2023-01-27T06:59:24;103567.22;;;9.51;100.00
64340;BME280;63709;53.258;-8.814;2023-01-27T07:01:50;103572.63;;;9.48;100.00
64340;BME280;63709;53.258;-8.814;2023-01-27T07:04:16;103561.03;;;9.49;100.00
64340;BME280;63709;53.258;-8.814;2023-01-27T07:06:42;103567.94;;;9.57;100.00
64340;BME280;63709;53.258;-8.814;2023-01-27T07:09:14;103562.59;;;9.57;100.00
64340;BME280;63709;53.258;-8.814;2023-01-27T07:11:40;103570.47;;;9.62;100.00
64340;BME280;63709;53.258;-8.814;2023-01-27T07:14:06;103572.69;;;9.46;100.00
64340;BME280;63709;53.258;-8.814;2023-01-27T07:16:32;103567.34;;;9.46;100.00
64340;BME280;63709;53.258;-8.814;2023-01-27T07:18:58;103558.50;;;9.44;100.00
64340;BME280;63709;53.258;-8.814;2023-01-27T07:21:30;103566.47;;;9.45;100.00
64340;BME280;63709;53.258;-8.814;2023-01-27T07:23:59;103566.63;;;9.38;100.00
64340;BME280;63709;53.258;-8.814;2023-01-27T07:26:24;103579.94;;;9.39;100.00
64340;BME280;63709;53.258;-8.814;2023-01-27T07:28:50;103582.47;;;9.45;100.00
64340;BME280;63709;53.258;-8.814;2023-01-27T07:31:18;103581.50;;;9.48;100.00
64340;BME280;63709;53.258;-8.814;2023-01-27T07:33:44;103579.81;;;9.44;100.00
64340;BME280;63709;53.258;-8.814;2023-01-27T07:36:10;103574.50;;;9.44;100.00
64340;BME280;63709;53.258;-8.814;2023-01-27T07:38:37;103579.75;;;9.47;100.00
64340;BME280;63709;53.258;-8.814;2023-01-27T07:41:06;103579.81;;;9.44;100.00
64340;BME280;63709;53.258;-8.814;2023-01-27T07:43:32;103591.53;;;9.38;100.00
64340;BME280;63709;53.258;-8.814;2023-01-27T07:45:58;103594.69;;;9.54;100.00
64340;BME280;63709;53.258;-8.814;2023-01-27T07:48:26;103587.69;;;9.50;100.00
64340;BME280;63709;53.258;-8.814;2023-01-27T07:50:52;103588.66;;;9.46;100.00
64340;BME280;63709;53.258;-8.814;2023-01-27T07:53:19;103596.66;;;9.46;100.00
64340;BME280;63709;53.258;-8.814;2023-01-27T07:55:45;103596.88;;;9.37;100.00
64340;BME280;63709;53.258;-8.814;2023-01-27T07:58:11;103592.34;;;9.40;100.00
64340;BME280;63709;53.258;-8.814;2023-01-27T08:00:37;103596.69;;;9.44;100.00
64340;BME280;63709;53.258;-8.814;2023-01-27T08:03:04;103593.28;;;9.39;100.00
64340;BME280;63709;53.258;-8.814;2023-01-27T08:05:31;103588.81;;;9.40;100.00
64340;BME280;63709;53.258;-8.814;2023-01-27T08:07:57;103591.22;;;9.51;100.00
64340;BME280;63709;53.258;-8.814;2023-01-27T08:10:23;103601.81;;;9.54;100.00
64340;BME280;63709;53.258;-8.814;2023-01-27T08:12:49;103588.75;;;9.43;100.00
64340;BME280;63709;53.258;-8.814;2023-01-27T08:15:15;103592.28;;;9.43;100.00
64340;BME280;63709;53.258;-8.814;2023-01-27T08:17:41;103589.56;;;9.45;100.00
64340;BME280;63709;53.258;-8.814;2023-01-27T08:20:07;103590.63;;;9.39;100.00
64340;BME280;63709;53.258;-8.814;2023-01-27T08:22:33;103588.53;;;9.51;100.00
64340;BME280;63709;53.258;-8.814;2023-01-27T08:24:59;103584.88;;;9.55;100.00
64340;BME280;63709;53.258;-8.814;2023-01-27T08:27:24;103591.97;;;9.56;100.00
64340;BME280;63709;53.258;-8.814;2023-01-27T08:29:52;103589.50;;;9.48;100.00
64340;BME280;63709;53.258;-8.814;2023-01-27T08:32:20;103588.69;;;9.44;100.00
64340;BME280;63709;53.258;-8.814;2023-01-27T08:34:45;103597.66;;;9.42;100.00
64340;BME280;63709;53.258;-8.814;2023-01-27T08:37:10;103600.41;;;9.39;100.00
64340;BME280;63709;53.258;-8.814;2023-01-27T08:39:36;103598.63;;;9.38;100.00
64340;BME280;63709;53.258;-8.814;2023-01-27T08:42:02;103602.28;;;9.35;100.00
64340;BME280;63709;53.258;-8.814;2023-01-27T08:44:27;103591.56;;;9.37;100.00
64340;BME280;63709;53.258;-8.814;2023-01-27T08:46:53;103594.09;;;9.41;100.00
64340;BME280;63709;53.258;-8.814;2023-01-27T08:49:19;103594.28;;;9.34;100.00
64340;BME280;63709;53.258;-8.814;2023-01-27T08:51:45;103591.44;;;9.41;100.00
64340;BME280;63709;53.258;-8.814;2023-01-27T08:54:12;103594.94;;;9.43;100.00
64340;BME280;63709;53.258;-8.814;2023-01-27T08:56:37;103593.22;;;9.41;100.00
64340;BME280;63709;53.258;-8.814;2023-01-27T08:59:04;103591.44;;;9.41;100.00
64340;BME280;63709;53.258;-8.814;2023-01-27T09:01:30;103583.34;;;9.44;100.00
64340;BME280;63709;53.258;-8.814;2023-01-27T09:03:56;103588.69;;;9.44;100.00
64340;BME280;63709;53.258;-8.814;2023-01-27T09:06:22;103596.75;;;9.41;100.00
64340;BME280;63709;53.258;-8.814;2023-01-27T09:08:49;103584.28;;;9.43;100.00
64340;BME280;63709;53.258;-8.814;2023-01-27T09:11:34;103591.22;;;9.51;100.00
64340;BME280;63709;53.258;-8.814;2023-01-27T09:14:00;103581.28;;;9.56;100.00
64340;BME280;63709;53.258;-8.814;2023-01-27T09:16:27;103583.81;;;9.62;100.00
64340;BME280;63709;53.258;-8.814;2023-01-27T09:18:53;103589.13;;;9.62;100.00
64340;BME280;63709;53.258;-8.814;2023-01-27T09:21:25;103589.19;;;9.60;100.00
64340;BME280;63709;53.258;-8.814;2023-01-27T09:23:51;103593.03;;;9.49;100.00
64340;BME280;63709;53.258;-8.814;2023-01-27T09:26:18;103591.00;;;9.58;100.00
64340;BME280;63709;53.258;-8.814;2023-01-27T09:28:44;103590.97;;;9.60;100.00
64340;BME280;63709;53.258;-8.814;2023-01-27T09:31:10;103587.22;;;9.67;100.00
64340;BME280;63709;53.258;-8.814;2023-01-27T09:33:36;103595.28;;;9.65;100.00
64340;BME280;63709;53.258;-8.814;2023-01-27T09:36:07;103587.28;;;9.64;100.00
64340;BME280;63709;53.258;-8.814;2023-01-27T09:38:40;103592.63;;;9.64;100.00
64340;BME280;63709;53.258;-8.814;2023-01-27T09:49:39;103577.09;;;9.80;100.00
64340;BME280;63709;53.258;-8.814;2023-01-27T10:02:38;103577.97;;;10.11;100.00
64340;BME280;63709;53.258;-8.814;2023-01-27T10:05:26;103574.31;;;10.15;100.00
64340;BME280;63709;53.258;-8.814;2023-01-27T10:10:26;103583.31;;;10.11;100.00
64340;BME280;63709;53.258;-8.814;2023-01-27T10:12:58;103582.59;;;10.06;100.00
64340;BME280;63709;53.258;-8.814;2023-01-27T10:23:39;103585.25;;;10.37;100.00
64340;BME280;63709;53.258;-8.814;2023-01-27T10:25:57;103590.53;;;10.40;100.00
64340;BME280;63709;53.258;-8.814;2023-01-27T10:28:28;103590.28;;;10.48;100.00
64340;BME280;63709;53.258;-8.814;2023-01-27T10:33:59;103585.50;;;10.59;100.00
64340;BME280;63709;53.258;-8.814;2023-01-27T10:36:26;103588.81;;;10.68;100.00
64340;BME280;63709;53.258;-8.814;2023-01-27T10:39:41;103587.66;;;10.76;100.00
64340;BME280;63709;53.258;-8.814;2023-01-27T10:41:49;103581.22;;;10.83;100.00
64340;BME280;63709;53.258;-8.814;2023-01-27T10:49:30;103578.19;;;10.94;100.00
64340;BME280;63709;53.258;-8.814;2023-01-27T10:52:19;103583.41;;;10.97;100.00
64340;BME280;63709;53.258;-8.814;2023-01-27T11:05:04;103575.91;;;11.10;100.00
64340;BME280;63709;53.258;-8.814;2023-01-27T11:07:32;103575.81;;;11.13;100.00
64340;BME280;63709;53.258;-8.814;2023-01-27T11:10:07;103570.91;;;11.26;100.00
64340;BME280;63709;53.258;-8.814;2023-01-27T11:12:39;103571.59;;;11.31;100.00
64340;BME280;63709;53.258;-8.814;2023-01-27T11:15:24;103570.75;;;11.30;100.00
64340;BME280;63709;53.258;-8.814;2023-01-27T11:18:00;103566.81;;;11.42;100.00
64340;BME280;63709;53.258;-8.814;2023-01-27T11:23:01;103572.03;;;11.45;100.00
64340;BME280;63709;53.258;-8.814;2023-01-27T11:30:50;103558.28;;;11.56;100.00
64340;BME280;63709;53.258;-8.814;2023-01-27T11:33:30;103556.53;;;11.55;100.00
64340;BME280;63709;53.258;-8.814;2023-01-27T11:36:01;103555.50;;;11.59;100.00
64340;BME280;63709;53.258;-8.814;2023-01-27T11:38:27;103550.75;;;11.67;100.00
64340;BME280;63709;53.258;-8.814;2023-01-27T11:40:52;103545.47;;;11.66;100.00
64340;BME280;63709;53.258;-8.814;2023-01-27T11:43:19;103536.47;;;11.68;100.00
64340;BME280;63709;53.258;-8.814;2023-01-27T11:45:45;103535.41;;;11.72;100.00
64340;BME280;63709;53.258;-8.814;2023-01-27T11:48:14;103529.81;;;11.78;100.00
64340;BME280;63709;53.258;-8.814;2023-01-27T11:50:41;103531.53;;;11.81;100.00
64340;BME280;63709;53.258;-8.814;2023-01-27T11:55:37;103523.34;;;11.85;100.00
64340;BME280;63709;53.258;-8.814;2023-01-27T12:00:36;103517.19;;;11.82;100.00
64340;BME280;63709;53.258;-8.814;2023-01-27T12:05:30;103519.50;;;11.93;100.00
64340;BME280;63709;53.258;-8.814;2023-01-27T12:07:57;103519.34;;;11.97;100.00
64340;BME280;63709;53.258;-8.814;2023-01-27T12:10:32;103520.38;;;11.93;100.00
64340;BME280;63709;53.258;-8.814;2023-01-27T12:13:06;103518.66;;;11.92;100.00
64340;BME280;63709;53.258;-8.814;2023-01-27T12:15:33;103511.19;;;12.00;100.00
64340;BME280;63709;53.258;-8.814;2023-01-27T12:18:00;103517.56;;;11.98;100.00
64340;BME280;63709;53.258;-8.814;2023-01-27T12:20:30;103514.91;;;11.96;100.00
64340;BME280;63709;53.258;-8.814;2023-01-27T12:22:59;103500.59;;;11.97;100.00
64340;BME280;63709;53.258;-8.814;2023-01-27T12:25:28;103503.25;;;11.99;100.00
64340;BME280;63709;53.258;-8.814;2023-01-27T12:27:59;103509.69;;;11.93;100.00
64340;BME280;63709;53.258;-8.814;2023-01-27T12:30:33;103483.19;;;11.85;100.00
64340;BME280;63709;53.258;-8.814;2023-01-27T12:33:09;103492.81;;;11.91;100.00
64340;BME280;63709;53.258;-8.814;2023-01-27T12:35:37;103482.22;;;11.88;100.00
64340;BME280;63709;53.258;-8.814;2023-01-27T12:40:32;103484.28;;;11.80;100.00
64340;BME280;63709;53.258;-8.814;2023-01-27T12:45:34;103482.41;;;11.82;100.00
64340;BME280;63709;53.258;-8.814;2023-01-27T12:50:38;103473.44;;;11.84;100.00
64340;BME280;63709;53.258;-8.814;2023-01-27T12:53:11;103465.44;;;11.83;100.00
64340;BME280;63709;53.258;-8.814;2023-01-27T12:55:42;103464.69;;;11.79;100.00
64340;BME280;63709;53.258;-8.814;2023-01-27T13:01:06;103469.88;;;11.84;100.00
64340;BME280;63709;53.258;-8.814;2023-01-27T13:03:45;103466.09;;;11.90;100.00
64340;BME280;63709;53.258;-8.814;2023-01-27T13:06:14;103455.16;;;11.96;100.00
64340;BME280;63709;53.258;-8.814;2023-01-27T13:08:41;103453.31;;;11.98;100.00
64340;BME280;63709;53.258;-8.814;2023-01-27T13:11:08;103447.69;;;12.04;100.00
64340;BME280;63709;53.258;-8.814;2023-01-27T13:13:35;103440.50;;;12.06;100.00
64340;BME280;63709;53.258;-8.814;2023-01-27T13:18:33;103435.28;;;12.01;100.00
64340;BME280;63709;53.258;-8.814;2023-01-27T13:21:12;103436.94;;;12.05;100.00
64340;BME280;63709;53.258;-8.814;2023-01-27T13:23:40;103434.13;;;12.08;100.00
64340;BME280;63709;53.258;-8.814;2023-01-27T13:28:33;103423.50;;;12.07;100.00
64340;BME280;63709;53.258;-8.814;2023-01-27T13:31:02;103426.09;;;12.08;100.00
64340;BME280;63709;53.258;-8.814;2023-01-27T13:33:33;103424.31;;;12.09;100.00
64340;BME280;63709;53.258;-8.814;2023-01-27T13:36:15;103426.81;;;12.14;100.00
64340;BME280;63709;53.258;-8.814;2023-01-27T13:41:17;103427.25;;;12.01;100.00
64340;BME280;63709;53.258;-8.814;2023-01-27T13:43:47;103423.56;;;12.05;100.00
64340;BME280;63709;53.258;-8.814;2023-01-27T13:46:16;103430.53;;;12.09;100.00
64340;BME280;63709;53.258;-8.814;2023-01-27T13:48:49;103426.69;;;12.17;100.00
64340;BME280;63709;53.258;-8.814;2023-01-27T13:51:20;103432.59;;;12.25;100.00
64340;BME280;63709;53.258;-8.814;2023-01-27T13:53:47;103431.78;;;12.23;100.00
64340;BME280;63709;53.258;-8.814;2023-01-27T13:56:29;103424.69;;;12.22;100.00
64340;BME280;63709;53.258;-8.814;2023-01-27T14:06:36;103417.59;;;12.43;100.00
64340;BME280;63709;53.258;-8.814;2023-01-27T14:11:51;103406.69;;;12.47;100.00
64340;BME280;63709;53.258;-8.814;2023-01-27T14:17:03;103417.19;;;12.52;100.00
64340;BME280;63709;53.258;-8.814;2023-01-27T14:29:44;103401.88;;;12.33;100.00
64340;BME280;63709;53.258;-8.814;2023-01-27T14:45:37;103375.28;;;12.07;100.00
64340;BME280;63709;53.258;-8.814;2023-01-27T15:21:42;103365.69;;;12.23;100.00
64340;BME280;63709;53.258;-8.814;2023-01-27T15:26:40;103374.47;;;12.27;100.00
64340;BME280;63709;53.258;-8.814;2023-01-27T15:29:08;103371.06;;;12.23;100.00